Time;durP1;ratioP1;P1;durP2;ratioP2;P2;SDS_P1;SDS_P2;PMS_P1;PMS_P2;Temp;Humidity;BMP_temperature;BMP_pressure;BME280_temperature;BME280_humidity;BME280_pressure;Samples;Min_cycle;Max_cycle;Signal;HPM_P1;HPM_P2
2021/05/10 00:01:34;;;;;;;4.60;4.30;;;16.10;97.80;;;;;;4985366;28;20203;-77
2021/05/10 00:04:01;;;;;;;4.63;4.33;;;16.10;98.60;;;;;;5012644;28;20237;-77
2021/05/10 00:06:28;;;;;;;4.47;4.17;;;16.20;98.60;;;;;;5012521;28;20207;-77
2021/05/10 00:08:56;;;;;;;4.27;3.97;;;16.20;98.60;;;;;;5012319;28;20606;-77
2021/05/10 00:11:23;;;;;;;4.60;4.20;;;16.20;98.40;;;;;;4996715;28;20264;-78
2021/05/10 00:13:50;;;;;;;4.30;3.90;;;16.20;98.60;;;;;;5013991;28;20212;-77
2021/05/10 00:16:17;;;;;;;4.03;3.63;;;16.20;98.60;;;;;;5003151;28;20198;-77
2021/05/10 00:18:43;;;;;;;5.03;4.53;;;16.10;99.00;;;;;;5008935;28;20186;-77
2021/05/10 00:21:09;;;;;;;5.23;4.70;;;16.00;99.70;;;;;;5013368;28;20199;-77
2021/05/10 00:23:36;;;;;;;5.87;5.37;;;16.00;99.60;;;;;;5008466;28;20223;-77
2021/05/10 00:26:03;;;;;;;6.17;5.57;;;15.90;99.90;;;;;;5015401;28;20619;-77
2021/05/10 00:28:29;;;;;;;6.30;5.70;;;15.80;99.90;;;;;;4994428;28;20706;-78
2021/05/10 00:30:56;;;;;;;6.03;5.53;;;15.70;99.90;;;;;;5010677;28;20243;-77
2021/05/10 00:33:22;;;;;;;5.73;5.23;;;15.60;99.90;;;;;;4992606;28;20255;-77
2021/05/10 00:35:48;;;;;;;6.07;5.57;;;15.50;99.90;;;;;;5010032;28;20205;-77
2021/05/10 00:38:15;;;;;;;5.70;5.20;;;15.40;99.90;;;;;;4995646;28;20640;-78
2021/05/10 00:40:41;;;;;;;5.87;5.33;;;15.40;99.90;;;;;;5013220;28;20201;-78
2021/05/10 00:43:09;;;;;;;5.33;4.93;;;15.20;99.90;;;;;;5008436;28;20295;-77
2021/05/10 00:45:35;;;;;;;5.33;4.93;;;15.10;99.90;;;;;;4995328;28;20789;-78
2021/05/10 00:48:02;;;;;;;5.10;4.80;;;15.00;99.90;;;;;;5012582;28;20216;-77
2021/05/10 00:50:28;;;;;;;6.93;5.30;;;14.90;99.90;;;;;;4994702;28;20208;-78
2021/05/10 00:52:55;;;;;;;5.50;5.10;;;14.80;99.90;;;;;;5012021;28;20217;-78
2021/05/10 00:55:21;;;;;;;5.70;5.30;;;14.70;99.90;;;;;;4996357;28;20193;-78
2021/05/10 00:57:51;;;;;;;5.80;5.40;;;14.60;99.90;;;;;;5015238;28;20185;-78
2021/05/10 01:00:20;;;;;;;5.50;5.10;;;14.60;99.90;;;;;;4993761;28;20200;-78
2021/05/10 01:02:47;;;;;;;6.20;5.70;;;14.50;99.90;;;;;;4992372;28;20236;-77
2021/05/10 01:05:16;;;;;;;7.13;5.73;;;14.50;99.90;;;;;;5013424;28;20200;-78
2021/05/10 01:07:43;;;;;;;6.37;5.57;;;14.40;99.90;;;;;;5010356;28;20251;-77
2021/05/10 01:10:11;;;;;;;6.67;6.10;;;14.40;99.90;;;;;;4996379;28;20205;-77
2021/05/10 01:12:38;;;;;;;5.77;5.30;;;14.30;99.90;;;;;;5012075;28;20239;-77
2021/05/10 01:15:07;;;;;;;6.40;5.90;;;14.30;99.90;;;;;;4988082;28;20212;-77
2021/05/10 01:17:36;;;;;;;6.60;6.00;;;14.30;99.90;;;;;;4995343;28;20244;-77
2021/05/10 01:20:04;;;;;;;5.97;5.47;;;14.30;99.90;;;;;;5016167;28;20223;-77
2021/05/10 01:22:39;;;;;;;5.80;5.30;;;14.20;99.90;;;;;;5003474;28;20221;-77
2021/05/10 01:25:07;;;;;;;5.57;5.03;;;14.20;99.90;;;;;;4996592;28;20200;-77
2021/05/10 01:27:34;;;;;;;5.27;4.90;;;14.10;99.90;;;;;;4994522;28;20613;-77
2021/05/10 01:30:01;;;;;;;5.70;5.30;;;14.00;99.90;;;;;;4991170;28;20204;-77
2021/05/10 01:32:27;;;;;;;6.20;5.70;;;13.90;99.90;;;;;;4990818;28;20208;-77
2021/05/10 01:34:54;;;;;;;6.00;5.60;;;13.90;99.90;;;;;;4990704;28;20275;-77
2021/05/10 01:37:20;;;;;;;5.70;5.30;;;13.90;99.90;;;;;;5009715;28;20290;-77
2021/05/10 01:39:47;;;;;;;5.50;5.10;;;13.90;99.90;;;;;;4994126;28;20655;-77
2021/05/10 01:42:14;;;;;;;6.07;5.60;;;13.80;99.90;;;;;;5015165;28;20204;-76
2021/05/10 01:44:40;;;;;;;5.50;5.10;;;13.80;99.90;;;;;;5006041;28;20215;-75
2021/05/10 01:47:06;;;;;;;5.50;5.10;;;13.80;99.90;;;;;;4990552;28;20212;-75
2021/05/10 01:49:33;;;;;;;6.07;5.57;;;13.70;99.90;;;;;;4992843;28;20224;-76
2021/05/10 01:52:01;;;;;;;5.40;5.00;;;13.70;99.90;;;;;;4977242;28;20211;-75
2021/05/10 01:54:27;;;;;;;5.40;5.00;;;13.70;99.90;;;;;;5007602;28;20215;-75
2021/05/10 01:56:55;;;;;;;5.50;5.10;;;13.70;99.90;;;;;;4987140;28;20201;-76
2021/05/10 01:59:21;;;;;;;5.60;5.13;;;13.80;99.90;;;;;;4991791;28;20203;-75
2021/05/10 02:01:48;;;;;;;5.43;5.03;;;13.80;99.90;;;;;;4988459;28;20202;-75
2021/05/10 02:04:14;;;;;;;5.93;5.43;;;13.80;99.90;;;;;;4989466;28;20234;-75
2021/05/10 02:06:41;;;;;;;5.30;5.00;;;13.90;99.90;;;;;;5011420;28;20610;-75
2021/05/10 02:09:07;;;;;;;5.30;4.90;;;13.90;99.90;;;;;;4989598;28;20223;-75
2021/05/10 02:11:33;;;;;;;5.07;4.77;;;13.90;99.90;;;;;;4995405;28;20200;-75
2021/05/10 02:14:04;;;;;;;5.63;5.23;;;14.00;99.90;;;;;;5009789;28;20227;-75
2021/05/10 02:16:32;;;;;;;4.30;4.00;;;14.00;99.90;;;;;;5013348;28;20205;-75
2021/05/10 02:18:59;;;;;;;4.70;4.13;;;14.10;99.90;;;;;;4990632;28;20210;-75
2021/05/10 02:21:30;;;;;;;4.40;4.00;;;14.10;99.90;;;;;;5007348;28;20207;-75
2021/05/10 02:23:57;;;;;;;4.97;4.57;;;14.10;99.90;;;;;;4992853;28;20315;-76
2021/05/10 02:26:23;;;;;;;4.87;4.53;;;14.10;99.90;;;;;;5004568;28;20204;-74
2021/05/10 02:28:50;;;;;;;5.47;5.07;;;14.10;99.90;;;;;;4996565;28;20303;-75
2021/05/10 02:31:17;;;;;;;5.97;5.57;;;14.10;99.90;;;;;;4985030;28;20297;-74
2021/05/10 02:33:43;;;;;;;5.93;5.37;;;14.10;99.90;;;;;;4980878;28;20232;-74
2021/05/10 02:36:10;;;;;;;6.07;5.57;;;14.10;99.90;;;;;;5003174;28;20193;-75
2021/05/10 02:38:36;;;;;;;4.60;4.30;;;14.10;99.90;;;;;;5000795;28;20272;-75
2021/05/10 02:41:02;;;;;;;5.90;3.63;;;14.10;99.90;;;;;;5003446;28;20196;-74
2021/05/10 02:43:29;;;;;;;5.77;4.70;;;14.10;99.90;;;;;;4992759;28;20235;-75
2021/05/10 02:45:55;;;;;;;4.07;3.77;;;14.00;99.90;;;;;;4976310;28;20213;-75
2021/05/10 02:48:23;;;;;;;4.00;3.70;;;14.00;99.90;;;;;;4995160;28;20209;-75
2021/05/10 02:50:49;;;;;;;4.60;4.20;;;14.00;99.90;;;;;;4995431;28;20199;-75
2021/05/10 02:53:16;;;;;;;3.47;2.93;;;14.00;99.90;;;;;;4995562;28;20220;-75
2021/05/10 02:55:42;;;;;;;3.87;2.73;;;14.00;99.90;;;;;;4986392;28;20214;-75
2021/05/10 02:58:09;;;;;;;2.93;2.73;;;14.00;99.90;;;;;;4998097;28;20243;-75
2021/05/10 03:00:35;;;;;;;3.10;2.83;;;14.00;99.90;;;;;;4997197;28;20199;-75
2021/05/10 03:03:02;;;;;;;2.80;2.43;;;14.00;99.90;;;;;;4995305;28;20671;-75
2021/05/10 03:05:29;;;;;;;2.83;2.63;;;14.00;99.90;;;;;;4978220;28;20272;-74
2021/05/10 03:07:57;;;;;;;2.77;2.57;;;13.90;99.90;;;;;;4984772;28;20222;-75
2021/05/10 03:10:25;;;;;;;2.93;2.60;;;13.90;99.90;;;;;;4963041;28;20213;-76
2021/05/10 03:12:53;;;;;;;3.00;2.70;;;13.90;99.90;;;;;;4982415;28;20728;-75
2021/05/10 03:15:21;;;;;;;3.37;3.07;;;13.90;99.90;;;;;;4979237;28;20202;-75
2021/05/10 03:17:51;;;;;;;4.83;3.20;;;13.90;99.90;;;;;;4963790;28;20213;-75
2021/05/10 03:20:19;;;;;;;3.10;2.90;;;13.80;99.90;;;;;;4980097;28;20196;-75
2021/05/10 03:22:50;;;;;;;5.80;5.40;;;13.80;99.90;;;;;;4983596;28;20218;-76
2021/05/10 03:25:17;;;;;;;6.00;5.60;;;13.80;99.90;;;;;;4973727;28;20202;-75
2021/05/10 03:27:43;;;;;;;5.40;5.00;;;13.90;99.90;;;;;;4962501;28;20275;-75
2021/05/10 03:30:12;;;;;;;5.20;4.80;;;13.90;99.90;;;;;;4982493;28;20215;-75
2021/05/10 03:32:40;;;;;;;3.90;3.60;;;13.90;99.90;;;;;;4993066;28;20230;-75
2021/05/10 03:35:10;;;;;;;5.07;4.30;;;14.00;99.90;;;;;;5007467;28;20239;-75
2021/05/10 03:37:37;;;;;;;5.97;5.47;;;14.00;99.90;;;;;;4993498;28;20691;-76
2021/05/10 03:40:05;;;;;;;5.70;5.30;;;13.90;99.90;;;;;;5006552;28;20212;-75
2021/05/10 03:42:32;;;;;;;5.90;5.50;;;13.90;99.90;;;;;;4989786;28;20280;-75
2021/05/10 03:44:58;;;;;;;4.50;4.10;;;14.00;99.90;;;;;;4989016;28;20586;-76
2021/05/10 03:47:33;;;;;;;4.17;3.83;;;14.10;99.90;;;;;;4994031;28;20204;-76
2021/05/10 03:49:59;;;;;;;5.10;4.77;;;14.20;99.90;;;;;;5006591;28;20672;-76
2021/05/10 03:52:26;;;;;;;5.53;5.13;;;14.20;99.90;;;;;;5007463;28;20737;-76
2021/05/10 03:54:52;;;;;;;5.27;4.87;;;14.30;99.90;;;;;;4993111;28;20275;-75
2021/05/10 03:57:19;;;;;;;5.80;5.40;;;14.40;99.90;;;;;;5006958;28;20200;-76
2021/05/10 03:59:46;;;;;;;6.73;6.17;;;14.40;99.90;;;;;;4994215;28;20679;-77
2021/05/10 04:02:12;;;;;;;5.30;4.90;;;14.60;99.90;;;;;;4983371;28;20208;-77
2021/05/10 04:04:41;;;;;;;5.00;4.67;;;14.60;99.90;;;;;;4990635;28;20213;-76
2021/05/10 04:07:30;;;;;;;5.03;4.63;;;14.60;99.90;;;;;;4991955;28;20196;-76
2021/05/10 04:15:37;;;;;;;5.30;5.00;;;14.50;99.90;;;;;;4987406;28;20706;-74
2021/05/10 04:18:04;;;;;;;5.60;5.20;;;14.60;99.90;;;;;;4988896;28;20212;-76
2021/05/10 04:20:30;;;;;;;5.70;5.30;;;14.60;99.90;;;;;;4987557;28;20205;-75
2021/05/10 04:22:56;;;;;;;5.90;5.50;;;14.70;99.90;;;;;;4989761;28;20710;-75
2021/05/10 04:25:23;;;;;;;6.40;6.00;;;14.80;99.90;;;;;;4988269;28;20201;-75
2021/05/10 04:27:49;;;;;;;6.40;6.00;;;14.80;99.90;;;;;;5008522;28;20220;-75
2021/05/10 04:30:17;;;;;;;5.57;5.27;;;14.90;99.90;;;;;;5007299;28;20201;-76
2021/05/10 04:32:43;;;;;;;5.47;5.17;;;15.00;99.90;;;;;;4985602;28;20232;-76
2021/05/10 04:35:10;;;;;;;5.60;5.30;;;15.00;99.90;;;;;;5008782;28;20193;-76
2021/05/10 04:37:37;;;;;;;7.30;6.60;;;15.00;99.90;;;;;;4987996;28;20476;-75
2021/05/10 04:40:04;;;;;;;6.40;6.00;;;15.00;99.90;;;;;;5008576;28;20209;-76
2021/05/10 04:42:30;;;;;;;6.20;5.80;;;15.00;99.90;;;;;;4983672;28;20228;-75
2021/05/10 04:44:57;;;;;;;6.33;5.93;;;15.10;99.90;;;;;;4990492;28;20205;-77
2021/05/10 04:47:24;;;;;;;6.00;5.60;;;15.20;99.90;;;;;;4975614;28;20217;-77
2021/05/10 04:49:50;;;;;;;6.40;5.80;;;15.20;99.90;;;;;;4993917;28;20213;-78
2021/05/10 04:52:16;;;;;;;6.17;5.77;;;15.40;99.90;;;;;;4997848;28;20201;-76
2021/05/10 04:54:43;;;;;;;5.60;5.30;;;15.50;99.90;;;;;;4994179;28;20204;-76
2021/05/10 04:57:09;;;;;;;5.03;4.70;;;15.60;99.90;;;;;;4977098;28;20213;-77
2021/05/10 04:59:36;;;;;;;5.27;4.93;;;15.80;99.90;;;;;;5000847;28;20643;-76
2021/05/10 05:02:02;;;;;;;3.90;3.70;;;15.90;99.90;;;;;;4977009;28;20209;-76
2021/05/10 05:04:29;;;;;;;5.60;5.10;;;16.00;99.90;;;;;;5027668;23;20232;-78
2021/05/10 05:06:56;;;;;;;2.73;2.53;;;16.10;99.90;;;;;;4984285;28;20557;-78
2021/05/10 05:09:22;;;;;;;2.80;2.60;;;16.20;99.90;;;;;;5012012;28;20275;-78
2021/05/10 05:11:49;;;;;;;4.97;4.57;;;16.30;99.90;;;;;;5011927;28;20239;-78
2021/05/10 05:14:15;;;;;;;4.73;4.43;;;16.40;99.90;;;;;;5005420;28;20278;-79
2021/05/10 05:16:41;;;;;;;5.80;4.90;;;16.40;99.90;;;;;;4988544;28;20202;-78
2021/05/10 05:19:07;;;;;;;4.87;4.57;;;16.40;99.90;;;;;;4975122;28;20253;-78
2021/05/10 05:21:35;;;;;;;4.13;3.33;;;16.40;99.90;;;;;;4974559;28;20206;-77
2021/05/10 05:24:01;;;;;;;3.40;3.20;;;16.40;99.90;;;;;;4974591;28;20221;-78
2021/05/10 05:26:27;;;;;;;5.27;3.47;;;16.40;99.90;;;;;;4992074;28;20203;-78
2021/05/10 05:28:54;;;;;;;4.77;4.47;;;16.40;99.90;;;;;;4992244;28;20222;-77
2021/05/10 05:31:23;;;;;;;4.23;3.93;;;16.40;99.90;;;;;;4992952;28;20210;-77
2021/05/10 05:33:49;;;;;;;4.40;4.00;;;16.40;99.90;;;;;;4993428;28;20221;-78
2021/05/10 05:36:15;;;;;;;2.50;2.30;;;16.50;99.90;;;;;;4974756;28;20211;-77
2021/05/10 05:38:43;;;;;;;4.20;3.90;;;16.50;99.90;;;;;;4973432;28;20666;-78
2021/05/10 05:41:11;;;;;;;3.30;3.00;;;16.50;99.90;;;;;;4973471;28;20703;-78
2021/05/10 05:43:37;;;;;;;5.70;5.30;;;16.40;99.90;;;;;;4962839;28;20217;-78
2021/05/10 05:46:10;;;;;;;5.50;5.10;;;16.50;99.90;;;;;;4991664;28;20308;-78
2021/05/10 05:48:37;;;;;;;5.87;5.47;;;16.50;99.90;;;;;;4991536;28;20698;-78
2021/05/10 05:51:03;;;;;;;6.00;5.60;;;16.40;99.90;;;;;;4985628;28;20216;-78
2021/05/10 05:53:30;;;;;;;6.57;6.07;;;16.40;99.90;;;;;;4992237;28;20260;-78
2021/05/10 05:55:57;;;;;;;6.60;6.10;;;16.40;99.90;;;;;;4974477;28;20201;-77
2021/05/10 05:58:23;;;;;;;6.63;6.13;;;16.50;99.90;;;;;;4991569;28;20601;-77
2021/05/10 06:00:52;;;;;;;6.70;6.20;;;16.50;99.90;;;;;;4974330;28;20236;-77
2021/05/10 06:03:19;;;;;;;6.43;5.93;;;16.70;99.90;;;;;;4991395;28;20236;-78
2021/05/10 06:05:45;;;;;;;6.60;6.10;;;16.90;99.90;;;;;;4987057;28;20204;-78
2021/05/10 06:08:11;;;;;;;6.50;6.00;;;17.10;99.90;;;;;;4974597;28;20213;-78
2021/05/10 06:10:38;;;;;;;7.90;6.63;;;17.30;99.90;;;;;;4992146;28;20206;-77
2021/05/10 06:13:05;;;;;;;6.37;5.77;;;17.70;99.90;;;;;;4993149;28;20216;-77
2021/05/10 06:15:31;;;;;;;6.03;3.97;;;18.00;99.90;;;;;;4992762;28;20197;-77
2021/05/10 06:17:57;;;;;;;5.87;4.97;;;18.30;99.90;;;;;;4992343;28;20194;-78
2021/05/10 06:20:24;;;;;;;4.33;3.67;;;18.70;99.90;;;;;;4974880;28;20227;-75
2021/05/10 06:22:51;;;;;;;3.23;2.90;;;19.10;99.90;;;;;;4991451;28;20283;-75
2021/05/10 06:25:17;;;;;;;3.40;2.57;;;19.60;99.90;;;;;;4974112;28;20205;-75
2021/05/10 06:27:43;;;;;;;2.60;2.40;;;20.00;99.90;;;;;;4991239;28;20197;-77
2021/05/10 06:30:12;;;;;;;3.67;2.73;;;20.50;99.90;;;;;;4963142;28;20268;-76
2021/05/10 06:32:40;;;;;;;2.70;2.50;;;20.70;99.90;;;;;;4991579;28;20214;-75
2021/05/10 06:35:07;;;;;;;7.83;7.07;;;20.80;99.90;;;;;;4991337;28;20283;-76
2021/05/10 06:37:34;;;;;;;7.70;7.13;;;20.80;99.90;;;;;;4974002;28;20207;-75
2021/05/10 06:40:01;;;;;;;6.90;6.40;;;20.70;99.90;;;;;;4991424;28;20199;-76
2021/05/10 06:42:28;;;;;;;6.60;6.10;;;20.40;99.90;;;;;;4974197;28;20687;-76
2021/05/10 06:44:54;;;;;;;6.30;5.73;;;20.30;99.90;;;;;;5000103;28;20216;-76
2021/05/10 06:47:22;;;;;;;6.10;5.60;;;20.30;99.90;;;;;;4974001;28;20195;-76
2021/05/10 06:49:48;;;;;;;5.83;5.43;;;20.30;99.90;;;;;;4994528;28;20246;-76
2021/05/10 06:52:14;;;;;;;5.63;5.23;;;20.30;99.90;;;;;;4987889;28;20207;-76
2021/05/10 06:54:41;;;;;;;5.03;4.73;;;20.30;99.90;;;;;;4994940;28;20246;-76
2021/05/10 06:57:07;;;;;;;5.00;4.50;;;20.40;99.90;;;;;;4977093;28;20207;-76
2021/05/10 06:59:34;;;;;;;4.50;4.20;;;20.40;99.90;;;;;;4977211;28;20197;-76
2021/05/10 07:02:00;;;;;;;4.63;4.23;;;20.30;99.90;;;;;;5001913;28;20203;-76
2021/05/10 07:04:27;;;;;;;4.70;4.40;;;20.30;99.90;;;;;;4989172;28;20242;-75
2021/05/10 07:06:53;;;;;;;4.57;4.20;;;20.50;99.90;;;;;;4976990;28;20211;-75
2021/05/10 07:09:20;;;;;;;4.60;4.30;;;20.60;99.90;;;;;;4977271;28;20692;-75
2021/05/10 07:11:46;;;;;;;4.83;4.43;;;20.50;99.90;;;;;;4994636;28;20203;-76
2021/05/10 07:14:12;;;;;;;4.53;4.23;;;20.60;99.90;;;;;;4994300;28;20220;-75
2021/05/10 07:16:38;;;;;;;5.10;4.30;;;20.50;99.90;;;;;;4994588;28;20210;-75
2021/05/10 07:19:05;;;;;;;5.13;4.50;;;20.40;99.90;;;;;;4994494;28;20204;-75
2021/05/10 07:21:32;;;;;;;5.20;4.80;;;20.40;99.90;;;;;;4977109;28;20209;-75
2021/05/10 07:23:58;;;;;;;7.30;5.03;;;20.90;99.90;;;;;;4994260;28;20231;-75
2021/05/10 07:26:24;;;;;;;5.27;4.87;;;21.30;99.90;;;;;;4994568;28;20212;-75
2021/05/10 07:28:51;;;;;;;5.20;4.80;;;21.30;99.90;;;;;;4976515;28;20219;-75
2021/05/10 07:31:17;;;;;;;5.77;5.10;;;21.30;99.90;;;;;;4976796;28;20577;-75
2021/05/10 07:33:44;;;;;;;4.60;4.30;;;21.30;99.90;;;;;;4994080;28;20221;-75
2021/05/10 07:36:10;;;;;;;5.80;5.30;;;21.30;99.90;;;;;;4976596;28;20212;-75
2021/05/10 07:38:37;;;;;;;6.17;5.67;;;21.30;99.90;;;;;;4976540;28;20200;-75
2021/05/10 07:41:04;;;;;;;6.90;6.50;;;21.10;99.90;;;;;;4993755;28;20197;-76
2021/05/10 07:43:30;;;;;;;7.03;6.53;;;20.90;99.90;;;;;;4976680;28;20301;-75
2021/05/10 07:45:56;;;;;;;6.43;6.03;;;20.80;99.90;;;;;;4976490;28;20232;-76
2021/05/10 07:48:23;;;;;;;6.03;5.60;;;20.80;99.90;;;;;;4965253;28;20218;-76
2021/05/10 07:50:49;;;;;;;6.17;5.77;;;20.60;99.90;;;;;;4974569;28;20666;-75
2021/05/10 07:53:15;;;;;;;5.90;5.50;;;20.50;99.90;;;;;;4987563;28;20227;-76
2021/05/10 07:55:42;;;;;;;6.10;5.70;;;20.50;99.90;;;;;;4981751;28;20554;-75
2021/05/10 07:58:09;;;;;;;6.30;5.90;;;20.50;99.90;;;;;;4968246;28;20209;-75
2021/05/10 08:00:37;;;;;;;5.90;5.50;;;20.40;99.90;;;;;;4988619;28;20201;-75
2021/05/10 08:03:07;;;;;;;5.60;5.20;;;20.50;99.90;;;;;;4975440;28;20279;-75
2021/05/10 08:05:34;;;;;;;5.70;5.30;;;20.40;99.90;;;;;;4993812;28;20200;-75
2021/05/10 08:08:00;;;;;;;5.80;5.40;;;20.40;99.90;;;;;;4993710;28;20668;-75
2021/05/10 08:10:27;;;;;;;5.57;5.20;;;20.40;99.90;;;;;;4993469;28;20208;-75
2021/05/10 08:12:54;;;;;;;5.70;5.40;;;20.50;99.90;;;;;;4993299;28;20200;-75
2021/05/10 08:15:20;;;;;;;5.40;5.00;;;20.60;99.90;;;;;;4993981;28;20549;-74
2021/05/10 08:17:46;;;;;;;5.70;5.27;;;20.80;99.90;;;;;;4993342;28;20328;-75
2021/05/10 08:20:14;;;;;;;2.00;1.90;;;21.00;99.90;;;;;;4993482;28;20264;-76
2021/05/10 08:22:40;;;;;;;5.90;5.40;;;21.20;99.90;;;;;;4981572;28;20634;-76
2021/05/10 08:25:07;;;;;;;6.47;6.03;;;21.30;99.90;;;;;;4984107;28;20701;-76
2021/05/10 08:27:34;;;;;;;6.90;6.30;;;21.60;99.90;;;;;;5006847;28;20215;-76
2021/05/10 08:30:03;;;;;;;6.70;6.10;;;22.00;99.90;;;;;;4975805;28;20216;-76
2021/05/10 08:32:29;;;;;;;2.70;2.07;;;22.60;99.90;;;;;;4993276;28;20197;-76
2021/05/10 08:34:56;;;;;;;2.63;1.97;;;23.00;99.90;;;;;;4993089;28;20225;-77
2021/05/10 08:37:22;;;;;;;4.70;4.27;;;23.60;99.90;;;;;;4993107;28;20201;-76
2021/05/10 08:39:49;;;;;;;5.07;4.53;;;24.60;99.90;;;;;;4992748;28;20189;-76
2021/05/10 08:42:16;;;;;;;4.90;4.50;;;25.50;99.20;;;;;;4993114;28;20208;-76
2021/05/10 08:44:43;;;;;;;4.57;4.17;;;26.10;96.10;;;;;;4993085;28;20720;-76
2021/05/10 08:47:10;;;;;;;4.50;4.20;;;26.50;94.90;;;;;;4993105;28;20197;-76
2021/05/10 08:49:36;;;;;;;4.90;4.50;;;26.40;93.60;;;;;;4990837;28;20291;-77
2021/05/10 08:52:03;;;;;;;4.60;4.30;;;26.60;93.80;;;;;;4967528;28;20208;-77
2021/05/10 08:54:31;;;;;;;5.80;4.20;;;26.70;92.70;;;;;;4966689;28;20596;-80
2021/05/10 08:57:00;;;;;;;5.20;4.80;;;26.90;92.50;;;;;;4985474;28;20204;-79
2021/05/10 08:59:27;;;;;;;5.47;5.00;;;27.10;92.10;;;;;;4978843;28;20199;-82
2021/05/10 09:01:57;;;;;;;5.30;4.80;;;27.10;91.30;;;;;;4969626;28;20190;-79
2021/05/10 09:04:30;;;;;;;4.80;4.40;;;27.00;89.90;;;;;;4972033;28;20218;-78
2021/05/10 09:07:17;;;;;;;4.73;4.30;;;26.80;91.70;;;;;;4975332;28;20210;-78
2021/05/10 09:09:55;;;;;;;5.13;4.37;;;26.80;90.50;;;;;;4974627;28;20209;-78
2021/05/10 09:12:22;;;;;;;4.60;4.30;;;26.70;89.50;;;;;;4994429;28;20276;-81
2021/05/10 09:14:49;;;;;;;4.60;4.30;;;27.00;90.70;;;;;;4973184;28;20229;-77
2021/05/10 09:17:16;;;;;;;4.50;4.20;;;27.20;90.20;;;;;;4993563;28;20197;-77
2021/05/10 09:19:48;;;;;;;4.70;4.40;;;27.60;90.60;;;;;;4976418;28;20229;-79
2021/05/10 09:22:14;;;;;;;4.97;4.50;;;28.10;87.90;;;;;;4969149;28;20208;-77
2021/05/10 09:24:46;;;;;;;4.80;4.30;;;27.80;89.50;;;;;;4988493;28;20221;-82
2021/05/10 09:27:26;;;;;;;4.83;4.40;;;28.00;87.10;;;;;;4954472;28;20209;-78
2021/05/10 09:30:13;;;;;;;4.73;4.33;;;28.40;89.10;;;;;;4973765;28;20190;-79
2021/05/10 09:32:44;;;;;;;5.87;4.50;;;28.50;85.90;;;;;;4985729;28;20280;-80
2021/05/10 09:35:17;;;;;;;5.00;4.60;;;28.60;87.40;;;;;;4994620;28;20193;-80
2021/05/10 09:37:44;;;;;;;5.83;4.60;;;28.70;86.70;;;;;;4993937;28;20224;-80
2021/05/10 09:40:12;;;;;;;4.93;4.57;;;28.40;83.10;;;;;;5009097;28;20220;-81
2021/05/10 09:42:49;;;;;;;6.83;6.10;;;28.00;84.40;;;;;;4988658;28;20205;-81
2021/05/10 09:45:33;;;;;;;5.13;4.70;;;28.10;87.50;;;;;;4978727;28;20193;-76
2021/05/10 09:48:04;;;;;;;5.83;5.53;;;27.90;86.50;;;;;;4973343;28;20229;-76
2021/05/10 09:50:34;;;;;;;7.00;6.50;;;28.00;87.10;;;;;;4984574;28;20767;-76
2021/05/10 09:53:02;;;;;;;6.93;6.40;;;27.80;87.20;;;;;;4988899;28;20224;-76
2021/05/10 09:55:45;;;;;;;7.30;6.60;;;27.40;88.50;;;;;;4989826;28;20190;-76
2021/05/10 09:58:12;;;;;;;6.60;6.10;;;27.10;89.20;;;;;;4990662;28;20296;-76
2021/05/10 10:00:40;;;;;;;6.57;6.13;;;27.00;89.80;;;;;;4969487;28;20205;-76
2021/05/10 10:03:26;;;;;;;7.03;6.43;;;26.90;89.30;;;;;;4990288;28;20717;-75
2021/05/10 10:05:55;;;;;;;7.27;6.67;;;26.60;88.30;;;;;;4998167;28;20202;-76
2021/05/10 10:08:21;;;;;;;6.60;6.20;;;26.30;89.80;;;;;;4991794;28;20189;-76
2021/05/10 10:10:48;;;;;;;7.47;6.90;;;25.90;90.80;;;;;;4991764;28;20639;-76
2021/05/10 10:13:15;;;;;;;6.97;6.47;;;25.50;90.60;;;;;;4985607;28;20221;-76
2021/05/10 10:15:42;;;;;;;6.27;5.87;;;25.50;91.40;;;;;;4991639;28;20198;-76
2021/05/10 10:18:10;;;;;;;7.10;6.50;;;25.40;92.30;;;;;;4985294;28;20213;-75
2021/05/10 10:20:38;;;;;;;6.60;6.10;;;25.30;92.90;;;;;;4991623;28;20604;-76
2021/05/10 10:23:07;;;;;;;6.47;5.90;;;25.40;93.20;;;;;;4992167;28;20728;-75
2021/05/10 10:25:34;;;;;;;6.90;6.30;;;25.30;94.00;;;;;;4977827;28;20201;-76
2021/05/10 10:28:02;;;;;;;7.10;6.40;;;25.30;94.10;;;;;;4977760;28;20197;-75
2021/05/10 10:30:31;;;;;;;7.20;6.60;;;25.30;94.10;;;;;;4995350;28;20456;-75
2021/05/10 10:32:59;;;;;;;7.03;6.50;;;25.30;95.10;;;;;;4977620;28;20216;-76
2021/05/10 10:35:26;;;;;;;6.40;5.90;;;24.80;94.80;;;;;;4995402;28;20193;-75
2021/05/10 10:37:52;;;;;;;6.30;5.80;;;24.80;95.10;;;;;;4995366;28;20189;-76
2021/05/10 10:40:21;;;;;;;9.47;6.40;;;24.80;95.50;;;;;;4977661;28;20228;-75
2021/05/10 10:42:48;;;;;;;7.30;6.60;;;24.60;95.00;;;;;;4977329;28;20250;-76
2021/05/10 10:45:22;;;;;;;6.87;6.23;;;24.50;95.50;;;;;;4977755;28;20212;-75
2021/05/10 10:47:54;;;;;;;6.87;6.07;;;24.50;95.20;;;;;;4977489;28;20212;-75
2021/05/10 10:50:22;;;;;;;6.73;5.83;;;24.50;95.30;;;;;;4990988;28;20190;-75
2021/05/10 10:52:50;;;;;;;8.07;5.77;;;24.20;95.70;;;;;;4992348;28;20197;-75
2021/05/10 10:55:19;;;;;;;6.67;6.07;;;23.70;96.20;;;;;;4977140;28;20239;-75
2021/05/10 10:57:47;;;;;;;6.40;5.80;;;23.70;95.90;;;;;;4994058;28;20197;-76
2021/05/10 11:00:17;;;;;;;6.97;6.47;;;23.70;96.70;;;;;;4974310;28;20310;-75
2021/05/10 11:02:46;;;;;;;6.30;5.73;;;23.60;96.70;;;;;;4994594;28;20205;-75
2021/05/10 11:05:14;;;;;;;6.90;6.30;;;23.60;97.30;;;;;;4978559;28;20227;-76
2021/05/10 11:08:03;;;;;;;6.10;5.60;;;23.70;96.80;;;;;;4994469;28;20306;-76
2021/05/10 11:10:50;;;;;;;7.33;5.60;;;23.60;97.40;;;;;;4965719;28;20201;-75
2021/05/10 11:13:38;;;;;;;6.53;6.00;;;23.80;97.60;;;;;;4963661;28;20228;-75
2021/05/10 11:16:08;;;;;;;6.83;6.23;;;23.90;97.40;;;;;;4976129;28;20256;-75
2021/05/10 11:18:44;;;;;;;8.03;6.57;;;23.90;97.30;;;;;;4976970;28;20307;-76
2021/05/10 11:21:38;;;;;;;8.00;6.20;;;23.70;97.50;;;;;;4989899;28;20658;-79
2021/05/10 11:24:09;;;;;;;6.63;6.03;;;23.40;97.60;;;;;;4982386;28;20221;-79
2021/05/10 11:26:37;;;;;;;6.80;6.20;;;23.20;97.80;;;;;;4964126;28;20202;-77
2021/05/10 11:29:06;;;;;;;9.40;5.97;;;23.30;98.40;;;;;;4983711;28;20229;-78
2021/05/10 11:31:36;;;;;;;6.70;6.13;;;23.20;98.30;;;;;;4980037;28;20191;-77
2021/05/10 11:34:09;;;;;;;6.13;5.70;;;23.20;98.30;;;;;;4994272;28;20218;-77
2021/05/10 11:36:37;;;;;;;6.23;5.73;;;23.30;98.10;;;;;;4993896;28;20255;-78
2021/05/10 11:39:06;;;;;;;6.43;5.63;;;23.10;97.90;;;;;;4986427;28;20217;-78
2021/05/10 11:41:33;;;;;;;6.00;5.50;;;22.90;97.50;;;;;;4994427;28;20194;-77
2021/05/10 11:44:01;;;;;;;5.73;5.33;;;22.90;97.90;;;;;;4994192;28;20233;-78
2021/05/10 11:46:42;;;;;;;5.53;5.23;;;22.90;98.00;;;;;;4994199;28;20204;-79
2021/05/10 11:49:10;;;;;;;5.80;5.50;;;22.60;98.00;;;;;;4960858;28;20197;-79
2021/05/10 11:51:38;;;;;;;5.97;5.47;;;22.40;98.20;;;;;;4993885;28;20189;-79
2021/05/10 11:54:06;;;;;;;6.07;5.47;;;22.10;98.50;;;;;;4976450;28;20283;-79
2021/05/10 11:56:38;;;;;;;6.30;5.90;;;21.90;98.60;;;;;;4976869;28;20240;-79
2021/05/10 11:59:12;;;;;;;5.97;5.60;;;21.90;99.40;;;;;;4994410;28;20213;-77
2021/05/10 12:01:41;;;;;;;5.97;5.57;;;22.00;99.60;;;;;;4984770;28;20205;-79
2021/05/10 12:04:19;;;;;;;6.37;5.83;;;21.90;98.90;;;;;;4977635;28;20700;-78
2021/05/10 12:06:45;;;;;;;6.00;5.60;;;21.90;98.60;;;;;;4991952;28;20204;-79
2021/05/10 12:09:41;;;;;;;5.70;5.40;;;21.90;99.40;;;;;;5003572;28;20201;-79
2021/05/10 12:12:22;;;;;;;6.07;5.67;;;22.10;99.30;;;;;;4976134;28;20236;-80
2021/05/10 12:14:49;;;;;;;5.67;5.30;;;22.00;99.40;;;;;;4988141;28;20216;-79
2021/05/10 12:17:18;;;;;;;5.70;5.30;;;21.90;99.90;;;;;;4993414;28;20193;-78
2021/05/10 12:20:01;;;;;;;5.87;5.47;;;22.00;99.90;;;;;;4986930;28;20210;-78
2021/05/10 12:22:29;;;;;;;5.43;5.13;;;22.00;99.90;;;;;;4993181;28;20224;-78
2021/05/10 12:25:05;;;;;;;5.83;5.33;;;22.00;99.90;;;;;;4992899;28;20566;-78
2021/05/10 12:27:36;;;;;;;5.80;5.40;;;21.80;99.90;;;;;;4986110;28;20197;-79
2021/05/10 12:30:06;;;;;;;5.70;5.40;;;21.80;99.90;;;;;;4979548;28;20670;-77
2021/05/10 12:32:33;;;;;;;5.90;5.50;;;21.80;99.90;;;;;;4986781;28;20224;-77
2021/05/10 12:34:59;;;;;;;6.00;5.60;;;21.50;99.90;;;;;;4992107;28;20220;-78
2021/05/10 12:37:26;;;;;;;6.13;5.70;;;21.50;99.90;;;;;;4992712;28;20202;-79
2021/05/10 12:40:06;;;;;;;5.80;5.40;;;21.40;99.90;;;;;;4992738;28;20225;-79
2021/05/10 12:42:32;;;;;;;5.87;5.47;;;21.60;99.90;;;;;;4975568;28;20255;-79
2021/05/10 12:45:00;;;;;;;6.33;5.73;;;21.70;99.90;;;;;;4992849;28;20295;-79
2021/05/10 12:47:47;;;;;;;6.17;5.77;;;21.90;99.90;;;;;;4992516;28;20212;-79
2021/05/10 12:50:32;;;;;;;5.90;5.50;;;21.80;99.90;;;;;;4990855;28;20208;-77
2021/05/10 12:53:01;;;;;;;5.63;5.23;;;22.00;99.90;;;;;;4992764;28;20705;-80
2021/05/10 12:55:28;;;;;;;6.53;6.00;;;22.10;99.90;;;;;;4982030;28;20194;-79
2021/05/10 12:57:54;;;;;;;6.10;5.70;;;22.20;99.80;;;;;;4993058;28;20208;-77
2021/05/10 13:00:36;;;;;;;6.00;5.50;;;22.20;98.70;;;;;;4988222;28;20702;-77